sensor_id;sensor_type;location;lat;lon;timestamp;pressure;altitude;pressure_sealevel;temperature;humidity
32759;BME280;19125;52.360;9.974;2023-07-09T00:01:52;84754.78;;;-145.17;40.62
32759;BME280;19125;52.360;9.974;2023-07-09T00:04:18;84762.72;;;-145.17;40.81
32759;BME280;19125;52.360;9.974;2023-07-09T00:06:44;84794.47;;;-145.17;40.98
32759;BME280;19125;52.360;9.974;2023-07-09T00:09:17;84754.78;;;-145.17;40.92
32759;BME280;19125;52.360;9.974;2023-07-09T00:11:44;84770.66;;;-145.17;40.92
32759;BME280;19125;52.360;9.974;2023-07-09T00:14:11;84766.69;;;-145.17;41.04
32759;BME280;19125;52.360;9.974;2023-07-09T00:16:38;84776.59;;;-145.17;41.16
32759;BME280;19125;52.360;9.974;2023-07-09T00:19:05;84762.72;;;-145.17;40.93
32759;BME280;19125;52.360;9.974;2023-07-09T00:21:30;84800.41;;;-145.17;40.85
32759;BME280;19125;52.360;9.974;2023-07-09T00:24:02;84774.63;;;-145.17;41.04
32759;BME280;19125;52.360;9.974;2023-07-09T00:26:30;84715.13;;;-145.17;41.23
32759;BME280;19125;52.360;9.974;2023-07-09T00:28:56;84772.66;;;-145.17;40.78
32759;BME280;19125;52.360;9.974;2023-07-09T00:31:21;84780.56;;;-145.17;41.20
32759;BME280;19125;52.360;9.974;2023-07-09T00:33:48;84778.59;;;-145.17;40.79
32759;BME280;19125;52.360;9.974;2023-07-09T00:36:34;84846.03;;;-145.17;41.13
32759;BME280;19125;52.360;9.974;2023-07-09T00:39:00;84804.38;;;-145.17;41.13
32759;BME280;19125;52.360;9.974;2023-07-09T00:41:32;84832.16;;;-145.17;40.84
32759;BME280;19125;52.360;9.974;2023-07-09T00:44:19;84816.28;;;-145.17;41.23
32759;BME280;19125;52.360;9.974;2023-07-09T00:49:12;84822.22;;;-145.17;41.16
32759;BME280;19125;52.360;9.974;2023-07-09T00:51:44;84846.03;;;-145.17;41.01
32759;BME280;19125;52.360;9.974;2023-07-09T00:54:26;84828.19;;;-145.17;41.09
32759;BME280;19125;52.360;9.974;2023-07-09T00:56:57;84822.22;;;-145.17;41.03
32759;BME280;19125;52.360;9.974;2023-07-09T00:59:26;84840.09;;;-145.17;40.98
32759;BME280;19125;52.360;9.974;2023-07-09T01:01:55;84844.06;;;-145.17;41.05
32759;BME280;19125;52.360;9.974;2023-07-09T01:04:21;84816.28;;;-145.17;40.94
32759;BME280;19125;52.360;9.974;2023-07-09T01:06:51;84861.91;;;-145.17;41.08
32759;BME280;19125;52.360;9.974;2023-07-09T01:09:17;84919.44;;;-145.17;41.23
32759;BME280;19125;52.360;9.974;2023-07-09T01:11:43;84840.09;;;-145.17;41.18
32759;BME280;19125;52.360;9.974;2023-07-09T01:14:11;84869.84;;;-145.17;41.73
32759;BME280;19125;52.360;9.974;2023-07-09T01:16:41;84885.72;;;-145.17;41.73
32759;BME280;19125;52.360;9.974;2023-07-09T01:19:08;84885.72;;;-145.17;41.99
32759;BME280;19125;52.360;9.974;2023-07-09T01:21:34;84895.63;;;-145.17;42.36
32759;BME280;19125;52.360;9.974;2023-07-09T01:24:15;84923.41;;;-145.17;42.17
32759;BME280;19125;52.360;9.974;2023-07-09T01:26:41;84933.31;;;-145.17;42.19
32759;BME280;19125;52.360;9.974;2023-07-09T01:29:08;84980.94;;;-145.17;42.21
32759;BME280;19125;52.360;9.974;2023-07-09T01:31:33;84925.38;;;-145.17;42.23
32759;BME280;19125;52.360;9.974;2023-07-09T01:33:58;84945.22;;;-145.17;42.17
32759;BME280;19125;52.360;9.974;2023-07-09T01:36:24;84953.16;;;-145.17;42.16
32759;BME280;19125;52.360;9.974;2023-07-09T01:38:51;84927.38;;;-145.17;42.16
32759;BME280;19125;52.360;9.974;2023-07-09T01:41:17;84951.19;;;-145.17;42.23
32759;BME280;19125;52.360;9.974;2023-07-09T01:43:44;84978.94;;;-145.17;42.51
32759;BME280;19125;52.360;9.974;2023-07-09T01:46:11;84927.38;;;-145.17;42.34
32759;BME280;19125;52.360;9.974;2023-07-09T01:48:38;84996.81;;;-145.17;42.30
32759;BME280;19125;52.360;9.974;2023-07-09T01:51:10;84923.41;;;-145.17;42.71
32759;BME280;19125;52.360;9.974;2023-07-09T01:53:37;84976.97;;;-145.17;42.49
32759;BME280;19125;52.360;9.974;2023-07-09T01:56:04;84980.94;;;-145.17;42.54
32759;BME280;19125;52.360;9.974;2023-07-09T01:58:32;84973.00;;;-145.17;42.59
32759;BME280;19125;52.360;9.974;2023-07-09T02:00:59;84988.88;;;-145.17;42.39
32759;BME280;19125;52.360;9.974;2023-07-09T02:03:24;84994.81;;;-145.17;42.57
32759;BME280;19125;52.360;9.974;2023-07-09T02:05:52;84992.84;;;-145.17;42.49
32759;BME280;19125;52.360;9.974;2023-07-09T02:08:18;84990.84;;;-145.17;42.72
32759;BME280;19125;52.360;9.974;2023-07-09T02:10:44;84992.84;;;-145.17;42.75
32759;BME280;19125;52.360;9.974;2023-07-09T02:13:10;85004.75;;;-145.17;42.79
32759;BME280;19125;52.360;9.974;2023-07-09T02:15:36;84996.81;;;-145.17;42.77
32759;BME280;19125;52.360;9.974;2023-07-09T02:18:02;84969.03;;;-145.17;42.77
32759;BME280;19125;52.360;9.974;2023-07-09T02:20:27;84990.84;;;-145.17;42.75
32759;BME280;19125;52.360;9.974;2023-07-09T02:22:53;85062.28;;;-145.17;42.69
32759;BME280;19125;52.360;9.974;2023-07-09T02:25:18;85000.78;;;-145.17;42.93
32759;BME280;19125;52.360;9.974;2023-07-09T02:27:44;84984.91;;;-145.17;42.91
32759;BME280;19125;52.360;9.974;2023-07-09T02:30:10;85058.31;;;-145.17;43.12
32759;BME280;19125;52.360;9.974;2023-07-09T02:32:36;85036.47;;;-145.17;43.13
32759;BME280;19125;52.360;9.974;2023-07-09T02:35:02;85040.44;;;-145.17;43.21
32759;BME280;19125;52.360;9.974;2023-07-09T02:37:27;85056.31;;;-145.17;43.25
32759;BME280;19125;52.360;9.974;2023-07-09T02:39:53;85022.59;;;-145.17;43.19
32759;BME280;19125;52.360;9.974;2023-07-09T02:42:20;85058.31;;;-145.17;43.31
32759;BME280;19125;52.360;9.974;2023-07-09T02:44:45;85078.13;;;-145.17;43.60
32759;BME280;19125;52.360;9.974;2023-07-09T02:47:11;85040.44;;;-145.17;43.32
32759;BME280;19125;52.360;9.974;2023-07-09T02:49:37;85084.09;;;-145.17;43.64
32759;BME280;19125;52.360;9.974;2023-07-09T02:52:03;85088.06;;;-145.17;43.79
32759;BME280;19125;52.360;9.974;2023-07-09T02:54:29;85115.84;;;-145.17;43.89
32759;BME280;19125;52.360;9.974;2023-07-09T02:56:54;85099.97;;;-145.17;44.09
32759;BME280;19125;52.360;9.974;2023-07-09T02:59:20;85127.75;;;-145.17;44.14
32759;BME280;19125;52.360;9.974;2023-07-09T03:01:45;85139.63;;;-145.17;44.44
32759;BME280;19125;52.360;9.974;2023-07-09T03:04:12;85123.78;;;-145.17;44.46
32759;BME280;19125;52.360;9.974;2023-07-09T03:06:37;85121.78;;;-145.17;44.64
32759;BME280;19125;52.360;9.974;2023-07-09T03:09:04;85125.75;;;-145.17;44.53
32759;BME280;19125;52.360;9.974;2023-07-09T03:11:30;85135.66;;;-145.17;44.61
32759;BME280;19125;52.360;9.974;2023-07-09T03:13:57;85113.84;;;-145.17;44.93
32759;BME280;19125;52.360;9.974;2023-07-09T03:16:23;85183.28;;;-145.17;44.99
32759;BME280;19125;52.360;9.974;2023-07-09T03:18:50;85171.38;;;-145.17;45.00
32759;BME280;19125;52.360;9.974;2023-07-09T03:21:16;85185.28;;;-145.17;45.13
32759;BME280;19125;52.360;9.974;2023-07-09T03:23:41;85169.41;;;-145.17;45.26
32759;BME280;19125;52.360;9.974;2023-07-09T03:26:06;85177.34;;;-145.17;45.33
32759;BME280;19125;52.360;9.974;2023-07-09T03:28:32;85153.53;;;-145.17;45.46
32759;BME280;19125;52.360;9.974;2023-07-09T03:30:57;85163.44;;;-145.17;45.60
32759;BME280;19125;52.360;9.974;2023-07-09T03:33:23;85143.59;;;-145.17;45.35
32759;BME280;19125;52.360;9.974;2023-07-09T03:35:49;85123.78;;;-145.17;44.79
32759;BME280;19125;52.360;9.974;2023-07-09T03:38:14;85111.88;;;-145.17;44.58
32759;BME280;19125;52.360;9.974;2023-07-09T03:40:40;85096.00;;;-145.17;44.09
32759;BME280;19125;52.360;9.974;2023-07-09T03:43:06;85040.44;;;-145.17;43.92
32759;BME280;19125;52.360;9.974;2023-07-09T03:45:34;85044.41;;;-145.17;43.65
32759;BME280;19125;52.360;9.974;2023-07-09T03:48:00;85006.72;;;-145.17;43.35
32759;BME280;19125;52.360;9.974;2023-07-09T03:50:25;84917.47;;;-145.17;42.78
32759;BME280;19125;52.360;9.974;2023-07-09T03:52:52;84846.03;;;-145.17;41.74
32759;BME280;19125;52.360;9.974;2023-07-09T03:55:17;84744.88;;;-145.17;40.87
32759;BME280;19125;52.360;9.974;2023-07-09T03:57:42;84709.16;;;-145.17;39.93
32759;BME280;19125;52.360;9.974;2023-07-09T04:00:08;84617.91;;;-145.17;39.33
32759;BME280;19125;52.360;9.974;2023-07-09T04:02:36;84617.91;;;-145.17;38.63
32759;BME280;19125;52.360;9.974;2023-07-09T04:05:01;84550.47;;;-145.17;37.95
32759;BME280;19125;52.360;9.974;2023-07-09T04:07:26;84510.81;;;-145.17;37.71
32759;BME280;19125;52.360;9.974;2023-07-09T04:09:52;84481.06;;;-145.17;37.28
32759;BME280;19125;52.360;9.974;2023-07-09T04:12:17;84453.28;;;-145.17;37.05
32759;BME280;19125;52.360;9.974;2023-07-09T04:14:42;84397.75;;;-145.17;36.57
32759;BME280;19125;52.360;9.974;2023-07-09T04:17:08;84373.94;;;-145.17;35.95
32759;BME280;19125;52.360;9.974;2023-07-09T04:19:33;84334.28;;;-145.17;35.68
32759;BME280;19125;52.360;9.974;2023-07-09T04:21:58;84296.59;;;-145.17;35.33
32759;BME280;19125;52.360;9.974;2023-07-09T04:24:24;84324.34;;;-145.17;35.20
32759;BME280;19125;52.360;9.974;2023-07-09T04:26:49;84266.84;;;-145.17;35.33
32759;BME280;19125;52.360;9.974;2023-07-09T04:29:14;84258.91;;;-145.17;34.84
32759;BME280;19125;52.360;9.974;2023-07-09T04:31:41;84215.25;;;-145.17;34.95
32759;BME280;19125;52.360;9.974;2023-07-09T04:34:07;84211.28;;;-145.17;34.72
32759;BME280;19125;52.360;9.974;2023-07-09T04:36:32;84219.22;;;-145.17;35.11
32759;BME280;19125;52.360;9.974;2023-07-09T04:38:58;84294.59;;;-145.17;35.40
32759;BME280;19125;52.360;9.974;2023-07-09T04:41:23;84342.22;;;-145.17;35.66
32759;BME280;19125;52.360;9.974;2023-07-09T04:43:49;84379.88;;;-145.17;36.32
32759;BME280;19125;52.360;9.974;2023-07-09T04:46:14;84429.47;;;-145.17;36.93
32759;BME280;19125;52.360;9.974;2023-07-09T04:48:40;84477.09;;;-145.17;37.13
32759;BME280;19125;52.360;9.974;2023-07-09T04:51:06;84516.75;;;-145.17;37.73
32759;BME280;19125;52.360;9.974;2023-07-09T04:53:31;84602.03;;;-145.17;37.56
32759;BME280;19125;52.360;9.974;2023-07-09T04:55:56;84576.25;;;-145.17;38.17
32759;BME280;19125;52.360;9.974;2023-07-09T04:58:22;84604.03;;;-145.17;38.51
32759;BME280;19125;52.360;9.974;2023-07-09T05:00:47;84625.84;;;-145.17;38.94
32759;BME280;19125;52.360;9.974;2023-07-09T05:03:15;84627.84;;;-145.17;39.35
32759;BME280;19125;52.360;9.974;2023-07-09T05:05:45;84661.56;;;-145.17;39.75
32759;BME280;19125;52.360;9.974;2023-07-09T05:08:11;84651.63;;;-145.17;39.84
32759;BME280;19125;52.360;9.974;2023-07-09T05:10:45;84629.81;;;-145.17;40.31
32759;BME280;19125;52.360;9.974;2023-07-09T05:13:11;84703.22;;;-145.17;40.82
32759;BME280;19125;52.360;9.974;2023-07-09T05:15:40;84675.44;;;-145.17;41.21
32759;BME280;19125;52.360;9.974;2023-07-09T05:18:06;84671.47;;;-145.17;41.33
32759;BME280;19125;52.360;9.974;2023-07-09T05:20:33;84687.34;;;-145.17;41.22
32759;BME280;19125;52.360;9.974;2023-07-09T05:22:58;84643.69;;;-145.17;41.40
32759;BME280;19125;52.360;9.974;2023-07-09T05:25:23;84623.88;;;-145.17;41.32
32759;BME280;19125;52.360;9.974;2023-07-09T05:27:49;84604.03;;;-145.17;41.04
32759;BME280;19125;52.360;9.974;2023-07-09T05:30:14;84590.16;;;-145.17;41.30
32759;BME280;19125;52.360;9.974;2023-07-09T05:32:39;84582.22;;;-145.17;41.30
32759;BME280;19125;52.360;9.974;2023-07-09T05:35:05;84588.16;;;-145.17;41.14
32759;BME280;19125;52.360;9.974;2023-07-09T05:37:31;84588.16;;;-145.17;41.02
32759;BME280;19125;52.360;9.974;2023-07-09T05:39:56;84526.66;;;-145.17;41.00
32759;BME280;19125;52.360;9.974;2023-07-09T05:42:21;84528.66;;;-145.17;40.43
32759;BME280;19125;52.360;9.974;2023-07-09T05:44:47;84554.44;;;-145.17;40.66
32759;BME280;19125;52.360;9.974;2023-07-09T05:47:12;84520.72;;;-145.17;40.62
32759;BME280;19125;52.360;9.974;2023-07-09T05:49:38;84469.16;;;-145.17;40.59
32759;BME280;19125;52.360;9.974;2023-07-09T05:52:04;84461.22;;;-145.17;39.89
32759;BME280;19125;52.360;9.974;2023-07-09T05:54:29;84465.19;;;-145.17;38.71
32759;BME280;19125;52.360;9.974;2023-07-09T05:56:55;84381.88;;;-145.17;38.16
32759;BME280;19125;52.360;9.974;2023-07-09T05:59:20;84358.06;;;-145.17;37.71
32759;BME280;19125;52.360;9.974;2023-07-09T06:01:45;84423.53;;;-145.17;37.65
32759;BME280;19125;52.360;9.974;2023-07-09T06:04:11;84389.81;;;-145.17;37.66
32759;BME280;19125;52.360;9.974;2023-07-09T06:06:39;84346.19;;;-145.17;37.75
32759;BME280;19125;52.360;9.974;2023-07-09T06:09:06;84328.31;;;-145.17;37.34
32759;BME280;19125;52.360;9.974;2023-07-09T06:11:31;84316.41;;;-145.17;37.25
32759;BME280;19125;52.360;9.974;2023-07-09T06:13:56;84290.63;;;-145.17;37.30
32759;BME280;19125;52.360;9.974;2023-07-09T06:16:23;84312.44;;;-145.17;37.56
32759;BME280;19125;52.360;9.974;2023-07-09T06:18:48;84304.53;;;-145.17;37.19
32759;BME280;19125;52.360;9.974;2023-07-09T06:21:14;84247.00;;;-145.17;36.64
32759;BME280;19125;52.360;9.974;2023-07-09T06:23:39;84199.41;;;-145.17;36.32
32759;BME280;19125;52.360;9.974;2023-07-09T06:26:04;84187.50;;;-145.17;35.90
32759;BME280;19125;52.360;9.974;2023-07-09T06:28:30;84215.25;;;-145.17;35.85
32759;BME280;19125;52.360;9.974;2023-07-09T06:30:56;84183.53;;;-145.17;35.78
32759;BME280;19125;52.360;9.974;2023-07-09T06:33:23;84155.75;;;-145.17;35.86
32759;BME280;19125;52.360;9.974;2023-07-09T06:35:51;84157.75;;;-145.17;35.90
32759;BME280;19125;52.360;9.974;2023-07-09T06:38:17;84102.22;;;-145.17;35.20
32759;BME280;19125;52.360;9.974;2023-07-09T06:40:43;84096.25;;;-145.17;35.07
32759;BME280;19125;52.360;9.974;2023-07-09T06:43:09;84086.34;;;-145.17;35.06
32759;BME280;19125;52.360;9.974;2023-07-09T06:45:34;84060.56;;;-145.17;34.52
32759;BME280;19125;52.360;9.974;2023-07-09T06:48:00;83985.19;;;-145.17;34.08
32759;BME280;19125;52.360;9.974;2023-07-09T06:50:25;84012.97;;;-145.17;34.28
32759;BME280;19125;52.360;9.974;2023-07-09T06:52:51;83987.19;;;-145.17;34.39
32759;BME280;19125;52.360;9.974;2023-07-09T06:55:16;84042.72;;;-145.17;34.58
32759;BME280;19125;52.360;9.974;2023-07-09T06:57:41;84001.06;;;-145.17;34.70
32759;BME280;19125;52.360;9.974;2023-07-09T07:00:07;84022.88;;;-145.17;34.97
32759;BME280;19125;52.360;9.974;2023-07-09T07:02:33;84005.03;;;-145.17;34.48
32759;BME280;19125;52.360;9.974;2023-07-09T07:04:58;84012.97;;;-145.17;34.68
32759;BME280;19125;52.360;9.974;2023-07-09T07:07:24;83971.31;;;-145.17;34.39
32759;BME280;19125;52.360;9.974;2023-07-09T07:09:49;83965.38;;;-145.17;34.63
32759;BME280;19125;52.360;9.974;2023-07-09T07:12:24;83937.59;;;-145.17;34.28
32759;BME280;19125;52.360;9.974;2023-07-09T07:14:50;83967.34;;;-145.17;33.99
32759;BME280;19125;52.360;9.974;2023-07-09T07:17:16;83897.94;;;-145.17;33.65
32759;BME280;19125;52.360;9.974;2023-07-09T07:19:41;83890.00;;;-145.17;33.68
32759;BME280;19125;52.360;9.974;2023-07-09T07:22:07;83895.94;;;-145.17;33.63
32759;BME280;19125;52.360;9.974;2023-07-09T07:24:32;83852.31;;;-145.17;33.41
32759;BME280;19125;52.360;9.974;2023-07-09T07:26:58;83784.88;;;-145.17;33.42
32759;BME280;19125;52.360;9.974;2023-07-09T07:29:23;83860.25;;;-145.17;33.12
32759;BME280;19125;52.360;9.974;2023-07-09T07:31:49;83814.63;;;-145.17;33.49
32759;BME280;19125;52.360;9.974;2023-07-09T07:34:14;83794.81;;;-145.17;33.13
32759;BME280;19125;52.360;9.974;2023-07-09T07:36:39;83786.88;;;-145.17;32.71
32759;BME280;19125;52.360;9.974;2023-07-09T07:39:05;83751.19;;;-145.17;32.81
32759;BME280;19125;52.360;9.974;2023-07-09T07:41:30;83731.34;;;-145.17;33.03
32759;BME280;19125;52.360;9.974;2023-07-09T07:43:55;83723.41;;;-145.17;32.46
32759;BME280;19125;52.360;9.974;2023-07-09T07:46:21;83749.19;;;-145.17;32.80
32759;BME280;19125;52.360;9.974;2023-07-09T07:48:46;83691.69;;;-145.17;32.92
32759;BME280;19125;52.360;9.974;2023-07-09T07:51:11;83735.31;;;-145.17;32.92
32759;BME280;19125;52.360;9.974;2023-07-09T07:53:38;83648.06;;;-145.17;32.45
32759;BME280;19125;52.360;9.974;2023-07-09T07:56:03;83652.03;;;-145.17;32.06
32759;BME280;19125;52.360;9.974;2023-07-09T07:58:30;83606.41;;;-145.17;31.69
32759;BME280;19125;52.360;9.974;2023-07-09T08:00:56;83558.81;;;-145.17;31.56
32759;BME280;19125;52.360;9.974;2023-07-09T08:03:22;83509.22;;;-145.17;31.74
32759;BME280;19125;52.360;9.974;2023-07-09T08:05:51;83503.28;;;-145.17;31.45
32759;BME280;19125;52.360;9.974;2023-07-09T08:08:17;83517.16;;;-145.17;31.29
32759;BME280;19125;52.360;9.974;2023-07-09T08:10:43;83489.41;;;-145.17;31.39
32759;BME280;19125;52.360;9.974;2023-07-09T08:13:09;83485.44;;;-145.17;31.86
32759;BME280;19125;52.360;9.974;2023-07-09T08:15:35;83521.13;;;-145.17;31.54
32759;BME280;19125;52.360;9.974;2023-07-09T08:18:00;83461.63;;;-145.17;32.07
32759;BME280;19125;52.360;9.974;2023-07-09T08:20:25;83457.69;;;-145.17;31.11
32759;BME280;19125;52.360;9.974;2023-07-09T08:22:51;83408.09;;;-145.17;30.88
32759;BME280;19125;52.360;9.974;2023-07-09T08:25:16;83421.97;;;-145.17;30.33
32759;BME280;19125;52.360;9.974;2023-07-09T08:27:41;83392.22;;;-145.17;30.23
32759;BME280;19125;52.360;9.974;2023-07-09T08:30:07;83370.41;;;-145.17;30.54
32759;BME280;19125;52.360;9.974;2023-07-09T08:32:33;83340.69;;;-145.17;30.54
32759;BME280;19125;52.360;9.974;2023-07-09T08:34:58;83299.03;;;-145.17;30.78
32759;BME280;19125;52.360;9.974;2023-07-09T08:37:23;83277.22;;;-145.17;30.13
32759;BME280;19125;52.360;9.974;2023-07-09T08:39:48;83279.22;;;-145.17;30.17
32759;BME280;19125;52.360;9.974;2023-07-09T08:42:41;83215.75;;;-145.17;29.79
32759;BME280;19125;52.360;9.974;2023-07-09T08:48:12;83158.25;;;-145.17;29.72
32759;BME280;19125;52.360;9.974;2023-07-09T08:50:48;83104.72;;;-145.17;28.77
32759;BME280;19125;52.360;9.974;2023-07-09T08:53:21;83110.66;;;-145.17;28.65
32759;BME280;19125;52.360;9.974;2023-07-09T08:55:52;83061.09;;;-145.17;28.51
32759;BME280;19125;52.360;9.974;2023-07-09T08:58:23;83027.38;;;-145.17;27.52
32759;BME280;19125;52.360;9.974;2023-07-09T09:03:41;82993.66;;;-145.17;27.26
32759;BME280;19125;52.360;9.974;2023-07-09T09:06:14;83027.38;;;-145.17;27.52
32759;BME280;19125;52.360;9.974;2023-07-09T09:08:47;82942.13;;;-145.17;26.77
32759;BME280;19125;52.360;9.974;2023-07-09T09:13:50;82934.19;;;-145.17;26.11
32759;BME280;19125;52.360;9.974;2023-07-09T09:16:38;82866.78;;;-145.17;26.39
32759;BME280;19125;52.360;9.974;2023-07-09T09:19:18;82884.63;;;-145.17;26.10
32759;BME280;19125;52.360;9.974;2023-07-09T09:21:46;82858.84;;;-145.17;26.54
32759;BME280;19125;52.360;9.974;2023-07-09T09:24:19;82775.56;;;-145.17;26.54
32759;BME280;19125;52.360;9.974;2023-07-09T09:26:48;82692.28;;;-145.17;26.10
32759;BME280;19125;52.360;9.974;2023-07-09T09:29:16;82718.06;;;-145.17;25.93
32759;BME280;19125;52.360;9.974;2023-07-09T09:31:45;82684.38;;;-145.17;25.67
32759;BME280;19125;52.360;9.974;2023-07-09T09:34:28;82720.06;;;-145.17;25.79
32759;BME280;19125;52.360;9.974;2023-07-09T09:36:56;82714.09;;;-145.17;25.25
32759;BME280;19125;52.360;9.974;2023-07-09T09:39:25;82638.75;;;-145.17;25.23
32759;BME280;19125;52.360;9.974;2023-07-09T09:41:58;82601.09;;;-145.17;25.79
32759;BME280;19125;52.360;9.974;2023-07-09T09:44:28;82656.59;;;-145.17;25.17
32759;BME280;19125;52.360;9.974;2023-07-09T09:46:57;82603.06;;;-145.17;24.85
32759;BME280;19125;52.360;9.974;2023-07-09T09:49:23;82611.00;;;-145.17;24.65
32759;BME280;19125;52.360;9.974;2023-07-09T09:51:48;82577.31;;;-145.17;24.64
32759;BME280;19125;52.360;9.974;2023-07-09T09:54:20;82634.81;;;-145.17;24.63
32759;BME280;19125;52.360;9.974;2023-07-09T09:56:48;82650.66;;;-145.17;24.48
32759;BME280;19125;52.360;9.974;2023-07-09T09:59:30;82599.13;;;-145.17;23.84
32759;BME280;19125;52.360;9.974;2023-07-09T10:02:00;82624.88;;;-145.17;24.27
32759;BME280;19125;52.360;9.974;2023-07-09T10:04:27;82587.22;;;-145.17;24.63
32759;BME280;19125;52.360;9.974;2023-07-09T10:06:56;82589.19;;;-145.17;24.11
32759;BME280;19125;52.360;9.974;2023-07-09T10:14:51;82339.41;;;-145.17;23.30
32759;BME280;19125;52.360;9.974;2023-07-09T10:17:37;82359.22;;;-145.17;23.15
32759;BME280;19125;52.360;9.974;2023-07-09T10:20:25;82353.28;;;-145.17;23.67
32759;BME280;19125;52.360;9.974;2023-07-09T10:25:33;82254.16;;;-145.17;23.57
32759;BME280;19125;52.360;9.974;2023-07-09T10:33:13;82166.94;;;-145.17;22.88
32759;BME280;19125;52.360;9.974;2023-07-09T10:38:55;82141.16;;;-145.17;22.77
32759;BME280;19125;52.360;9.974;2023-07-09T10:41:22;82145.13;;;-145.17;22.19
32759;BME280;19125;52.360;9.974;2023-07-09T10:43:54;82113.41;;;-145.17;22.89
32759;BME280;19125;52.360;9.974;2023-07-09T10:46:26;82125.28;;;-145.17;22.63
32759;BME280;19125;52.360;9.974;2023-07-09T10:48:54;82192.69;;;-145.17;22.54
32759;BME280;19125;52.360;9.974;2023-07-09T10:51:30;82089.63;;;-145.17;22.49
32759;BME280;19125;52.360;9.974;2023-07-09T10:54:24;82061.88;;;-145.17;21.96
32759;BME280;19125;52.360;9.974;2023-07-09T10:57:00;82010.31;;;-145.17;22.32
32759;BME280;19125;52.360;9.974;2023-07-09T10:59:31;82044.03;;;-145.17;21.63
32759;BME280;19125;52.360;9.974;2023-07-09T11:02:01;81990.50;;;-145.17;22.20
32759;BME280;19125;52.360;9.974;2023-07-09T11:07:11;81919.13;;;-145.17;22.27
32759;BME280;19125;52.360;9.974;2023-07-09T11:09:45;81942.91;;;-145.17;22.67
32759;BME280;19125;52.360;9.974;2023-07-09T11:12:17;81923.09;;;-145.17;22.35
32759;BME280;19125;52.360;9.974;2023-07-09T11:17:20;81909.22;;;-145.17;21.21
32759;BME280;19125;52.360;9.974;2023-07-09T11:19:49;81889.41;;;-145.17;21.40
32759;BME280;19125;52.360;9.974;2023-07-09T11:22:24;81825.97;;;-145.17;21.41
32759;BME280;19125;52.360;9.974;2023-07-09T11:27:33;81859.66;;;-145.17;21.37
32759;BME280;19125;52.360;9.974;2023-07-09T11:30:22;81780.38;;;-145.17;21.37
32759;BME280;19125;52.360;9.974;2023-07-09T11:32:54;81837.84;;;-145.17;21.37
32759;BME280;19125;52.360;9.974;2023-07-09T11:35:23;81818.03;;;-145.17;20.79
32759;BME280;19125;52.360;9.974;2023-07-09T11:37:50;81792.28;;;-145.17;20.53
32759;BME280;19125;52.360;9.974;2023-07-09T11:40:16;81736.78;;;-145.17;20.68
32759;BME280;19125;52.360;9.974;2023-07-09T11:45:30;81631.72;;;-145.17;20.68
32759;BME280;19125;52.360;9.974;2023-07-09T11:48:23;81574.22;;;-145.17;20.73
32759;BME280;19125;52.360;9.974;2023-07-09T11:50:51;81617.84;;;-145.17;20.52
32759;BME280;19125;52.360;9.974;2023-07-09T11:55:59;81623.78;;;-145.17;19.92
32759;BME280;19125;52.360;9.974;2023-07-09T11:58:24;81649.56;;;-145.17;19.47
32759;BME280;19125;52.360;9.974;2023-07-09T12:00:52;81667.41;;;-145.17;19.99
32759;BME280;19125;52.360;9.974;2023-07-09T12:03:21;81568.28;;;-145.17;20.33
32759;BME280;19125;52.360;9.974;2023-07-09T12:06:22;81627.75;;;-145.17;19.96
32759;BME280;19125;52.360;9.974;2023-07-09T12:08:49;81609.91;;;-145.17;20.04
32759;BME280;19125;52.360;9.974;2023-07-09T12:11:27;81609.91;;;-145.17;20.15
32759;BME280;19125;52.360;9.974;2023-07-09T12:13:53;81562.34;;;-145.17;20.22
32759;BME280;19125;52.360;9.974;2023-07-09T12:16:25;81465.22;;;-145.17;19.68
32759;BME280;19125;52.360;9.974;2023-07-09T12:18:51;81451.34;;;-145.17;19.68
32759;BME280;19125;52.360;9.974;2023-07-09T12:21:18;81487.03;;;-145.17;19.37
32759;BME280;19125;52.360;9.974;2023-07-09T12:23:44;81483.06;;;-145.17;19.58
32759;BME280;19125;52.360;9.974;2023-07-09T12:26:14;81451.34;;;-145.17;19.09
32759;BME280;19125;52.360;9.974;2023-07-09T12:28:40;81409.72;;;-145.17;19.12
32759;BME280;19125;52.360;9.974;2023-07-09T12:31:12;81407.75;;;-145.17;19.06
32759;BME280;19125;52.360;9.974;2023-07-09T12:33:38;81380.00;;;-145.17;19.41
32759;BME280;19125;52.360;9.974;2023-07-09T12:36:04;81312.59;;;-145.17;19.93
32759;BME280;19125;52.360;9.974;2023-07-09T12:38:43;81350.25;;;-145.17;19.60
32759;BME280;19125;52.360;9.974;2023-07-09T12:43:52;81360.16;;;-145.17;20.07
32759;BME280;19125;52.360;9.974;2023-07-09T12:46:18;81306.66;;;-145.17;20.24
32759;BME280;19125;52.360;9.974;2023-07-09T12:48:45;81330.44;;;-145.17;19.78
32759;BME280;19125;52.360;9.974;2023-07-09T12:51:19;81328.47;;;-145.17;19.47
32759;BME280;19125;52.360;9.974;2023-07-09T12:53:45;81302.69;;;-145.17;19.47
32759;BME280;19125;52.360;9.974;2023-07-09T12:56:13;81314.59;;;-145.17;19.94
32759;BME280;19125;52.360;9.974;2023-07-09T12:58:39;81318.53;;;-145.17;19.85
32759;BME280;19125;52.360;9.974;2023-07-09T13:01:08;81247.19;;;-145.17;20.31
32759;BME280;19125;52.360;9.974;2023-07-09T13:03:39;81239.28;;;-145.17;20.31
32759;BME280;19125;52.360;9.974;2023-07-09T13:06:34;81247.19;;;-145.17;19.96
32759;BME280;19125;52.360;9.974;2023-07-09T13:09:00;81326.47;;;-145.17;20.47
32759;BME280;19125;52.360;9.974;2023-07-09T13:11:33;81245.22;;;-145.17;20.25
32759;BME280;19125;52.360;9.974;2023-07-09T13:14:03;81284.84;;;-145.17;20.17
32759;BME280;19125;52.360;9.974;2023-07-09T13:16:29;81255.13;;;-145.17;19.88
32759;BME280;19125;52.360;9.974;2023-07-09T13:18:55;81280.88;;;-145.17;19.74
32759;BME280;19125;52.360;9.974;2023-07-09T13:21:21;81324.50;;;-145.17;19.17
32759;BME280;19125;52.360;9.974;2023-07-09T13:23:47;81411.69;;;-145.17;19.86
32759;BME280;19125;52.360;9.974;2023-07-09T13:26:14;81455.31;;;-145.17;20.26
32759;BME280;19125;52.360;9.974;2023-07-09T13:28:41;81401.78;;;-145.17;19.92